sensor_id;sensor_type;location;lat;lon;timestamp;temperature;humidity
23713;DHT22;12035;49.978;8.298;2023-03-21T00:04:11;14.30;56.90
23713;DHT22;12035;49.978;8.298;2023-03-21T00:09:08;14.20;57.30
23713;DHT22;12035;49.978;8.298;2023-03-21T00:14:06;14.20;57.60
23713;DHT22;12035;49.978;8.298;2023-03-21T00:19:08;14.10;57.80
23713;DHT22;12035;49.978;8.298;2023-03-21T00:24:08;14.20;57.90
23713;DHT22;12035;49.978;8.298;2023-03-21T00:29:05;14.20;58.10
23713;DHT22;12035;49.978;8.298;2023-03-21T00:34:03;14.20;58.10
23713;DHT22;12035;49.978;8.298;2023-03-21T00:39:00;14.20;58.20
23713;DHT22;12035;49.978;8.298;2023-03-21T00:44:00;14.20;58.10
23713;DHT22;12035;49.978;8.298;2023-03-21T00:48:58;14.20;58.10
23713;DHT22;12035;49.978;8.298;2023-03-21T00:53:57;14.10;58.10
23713;DHT22;12035;49.978;8.298;2023-03-21T00:58:54;14.10;58.20
23713;DHT22;12035;49.978;8.298;2023-03-21T01:03:52;14.00;58.20
23713;DHT22;12035;49.978;8.298;2023-03-21T01:08:58;14.00;57.90
23713;DHT22;12035;49.978;8.298;2023-03-21T01:13:55;14.00;57.90
23713;DHT22;12035;49.978;8.298;2023-03-21T01:18:54;14.00;58.00
23713;DHT22;12035;49.978;8.298;2023-03-21T01:23:51;14.00;58.20
23713;DHT22;12035;49.978;8.298;2023-03-21T01:28:49;14.00;58.10
23713;DHT22;12035;49.978;8.298;2023-03-21T01:33:46;14.00;58.20
23713;DHT22;12035;49.978;8.298;2023-03-21T01:38:44;14.00;58.20
23713;DHT22;12035;49.978;8.298;2023-03-21T01:43:41;14.00;58.30
23713;DHT22;12035;49.978;8.298;2023-03-21T01:48:41;14.00;58.20
23713;DHT22;12035;49.978;8.298;2023-03-21T01:53:39;13.90;58.20
23713;DHT22;12035;49.978;8.298;2023-03-21T01:58:39;13.90;58.40
23713;DHT22;12035;49.978;8.298;2023-03-21T02:03:38;13.90;58.50
23713;DHT22;12035;49.978;8.298;2023-03-21T02:08:44;13.80;58.50
23713;DHT22;12035;49.978;8.298;2023-03-21T02:13:44;13.70;58.50
23713;DHT22;12035;49.978;8.298;2023-03-21T02:18:46;13.70;58.70
23713;DHT22;12035;49.978;8.298;2023-03-21T02:24:22;13.60;58.90
23713;DHT22;12035;49.978;8.298;2023-03-21T02:29:38;13.60;59.30
23713;DHT22;12035;49.978;8.298;2023-03-21T02:34:56;13.50;59.40
23713;DHT22;12035;49.978;8.298;2023-03-21T02:40:07;13.50;59.30
23713;DHT22;12035;49.978;8.298;2023-03-21T02:45:10;13.50;59.30
23713;DHT22;12035;49.978;8.298;2023-03-21T02:50:14;13.40;59.00
23713;DHT22;12035;49.978;8.298;2023-03-21T02:55:18;13.40;59.20
23713;DHT22;12035;49.978;8.298;2023-03-21T03:00:19;13.40;59.20
23713;DHT22;12035;49.978;8.298;2023-03-21T03:05:20;13.40;59.30
23713;DHT22;12035;49.978;8.298;2023-03-21T03:10:34;13.40;59.50
23713;DHT22;12035;49.978;8.298;2023-03-21T03:15:40;13.40;59.60
23713;DHT22;12035;49.978;8.298;2023-03-21T03:20:51;13.40;59.50
23713;DHT22;12035;49.978;8.298;2023-03-21T03:26:01;13.40;59.50
23713;DHT22;12035;49.978;8.298;2023-03-21T03:31:00;13.40;59.60
23713;DHT22;12035;49.978;8.298;2023-03-21T03:35:59;13.40;59.40
23713;DHT22;12035;49.978;8.298;2023-03-21T03:41:01;13.40;59.40
23713;DHT22;12035;49.978;8.298;2023-03-21T03:46:07;13.40;59.50
23713;DHT22;12035;49.978;8.298;2023-03-21T03:51:09;13.40;59.40
23713;DHT22;12035;49.978;8.298;2023-03-21T03:56:12;13.30;59.30
23713;DHT22;12035;49.978;8.298;2023-03-21T04:01:10;13.20;59.40
23713;DHT22;12035;49.978;8.298;2023-03-21T04:06:07;13.20;59.60
23713;DHT22;12035;49.978;8.298;2023-03-21T04:11:06;13.20;59.70
23713;DHT22;12035;49.978;8.298;2023-03-21T04:16:05;13.10;59.70
23713;DHT22;12035;49.978;8.298;2023-03-21T04:21:07;13.10;59.60
23713;DHT22;12035;49.978;8.298;2023-03-21T04:26:05;13.10;59.70
23713;DHT22;12035;49.978;8.298;2023-03-21T04:31:06;13.10;59.60
23713;DHT22;12035;49.978;8.298;2023-03-21T04:36:06;13.10;60.00
23713;DHT22;12035;49.978;8.298;2023-03-21T04:41:21;13.10;59.90
23713;DHT22;12035;49.978;8.298;2023-03-21T04:46:20;13.10;60.00
23713;DHT22;12035;49.978;8.298;2023-03-21T04:51:18;13.10;60.00
23713;DHT22;12035;49.978;8.298;2023-03-21T04:56:15;13.10;60.00
23713;DHT22;12035;49.978;8.298;2023-03-21T05:01:12;13.10;59.80
23713;DHT22;12035;49.978;8.298;2023-03-21T05:06:16;13.10;60.00
23713;DHT22;12035;49.978;8.298;2023-03-21T05:11:13;13.10;60.80
23713;DHT22;12035;49.978;8.298;2023-03-21T05:16:10;13.20;60.10
23713;DHT22;12035;49.978;8.298;2023-03-21T05:21:07;13.20;60.20
23713;DHT22;12035;49.978;8.298;2023-03-21T05:26:07;13.30;60.30
23713;DHT22;12035;49.978;8.298;2023-03-21T05:31:05;13.30;60.70
23713;DHT22;12035;49.978;8.298;2023-03-21T05:36:03;13.30;60.50
23713;DHT22;12035;49.978;8.298;2023-03-21T05:41:01;13.20;60.40
23713;DHT22;12035;49.978;8.298;2023-03-21T05:45:59;13.10;60.40
23713;DHT22;12035;49.978;8.298;2023-03-21T05:50:56;13.10;61.00
23713;DHT22;12035;49.978;8.298;2023-03-21T05:55:53;13.20;62.60
23713;DHT22;12035;49.978;8.298;2023-03-21T06:00:51;13.40;63.20
23713;DHT22;12035;49.978;8.298;2023-03-21T06:05:49;13.60;62.70
23713;DHT22;12035;49.978;8.298;2023-03-21T06:10:47;13.70;62.20
23713;DHT22;12035;49.978;8.298;2023-03-21T06:15:44;13.80;61.80
23713;DHT22;12035;49.978;8.298;2023-03-21T06:20:41;13.90;61.70
23713;DHT22;12035;49.978;8.298;2023-03-21T06:25:39;13.90;61.70
23713;DHT22;12035;49.978;8.298;2023-03-21T06:30:36;13.80;61.50
23713;DHT22;12035;49.978;8.298;2023-03-21T06:35:33;13.80;61.50
23713;DHT22;12035;49.978;8.298;2023-03-21T06:40:31;13.70;61.80
23713;DHT22;12035;49.978;8.298;2023-03-21T06:45:32;13.70;62.50
23713;DHT22;12035;49.978;8.298;2023-03-21T06:50:29;13.70;63.00
23713;DHT22;12035;49.978;8.298;2023-03-21T06:55:26;13.80;63.10
23713;DHT22;12035;49.978;8.298;2023-03-21T07:00:24;14.00;63.10
23713;DHT22;12035;49.978;8.298;2023-03-21T07:05:23;14.10;62.90
23713;DHT22;12035;49.978;8.298;2023-03-21T07:10:20;14.20;62.60
23713;DHT22;12035;49.978;8.298;2023-03-21T07:15:17;14.30;62.10
23713;DHT22;12035;49.978;8.298;2023-03-21T07:20:14;14.40;61.70
23713;DHT22;12035;49.978;8.298;2023-03-21T07:25:13;14.50;61.60
23713;DHT22;12035;49.978;8.298;2023-03-21T07:30:12;14.60;61.40
23713;DHT22;12035;49.978;8.298;2023-03-21T07:35:11;14.60;61.10
23713;DHT22;12035;49.978;8.298;2023-03-21T07:40:12;14.70;60.90
23713;DHT22;12035;49.978;8.298;2023-03-21T07:45:10;14.80;60.80
23713;DHT22;12035;49.978;8.298;2023-03-21T07:50:09;14.90;61.00
23713;DHT22;12035;49.978;8.298;2023-03-21T07:55:07;15.20;61.70
23713;DHT22;12035;49.978;8.298;2023-03-21T08:00:07;15.50;61.50
23713;DHT22;12035;49.978;8.298;2023-03-21T08:05:06;15.80;60.40
23713;DHT22;12035;49.978;8.298;2023-03-21T08:10:07;16.10;59.70
23713;DHT22;12035;49.978;8.298;2023-03-21T08:15:08;16.40;59.40
23713;DHT22;12035;49.978;8.298;2023-03-21T08:20:07;16.50;58.70
23713;DHT22;12035;49.978;8.298;2023-03-21T08:25:07;16.60;58.60
23713;DHT22;12035;49.978;8.298;2023-03-21T08:30:11;16.60;58.30
23713;DHT22;12035;49.978;8.298;2023-03-21T08:35:12;16.50;58.00
23713;DHT22;12035;49.978;8.298;2023-03-21T08:40:12;16.40;58.10
23713;DHT22;12035;49.978;8.298;2023-03-21T08:45:13;16.30;58.30
23713;DHT22;12035;49.978;8.298;2023-03-21T08:50:13;16.30;58.50
23713;DHT22;12035;49.978;8.298;2023-03-21T08:55:12;16.30;58.60
23713;DHT22;12035;49.978;8.298;2023-03-21T09:00:14;16.30;58.30
23713;DHT22;12035;49.978;8.298;2023-03-21T09:05:12;16.30;58.10
23713;DHT22;12035;49.978;8.298;2023-03-21T09:10:13;16.30;58.20
23713;DHT22;12035;49.978;8.298;2023-03-21T09:15:14;16.30;57.50
23713;DHT22;12035;49.978;8.298;2023-03-21T09:20:12;16.30;56.90
23713;DHT22;12035;49.978;8.298;2023-03-21T09:25:13;16.20;56.30
23713;DHT22;12035;49.978;8.298;2023-03-21T09:30:12;16.20;55.90
23713;DHT22;12035;49.978;8.298;2023-03-21T09:35:12;16.20;55.90
23713;DHT22;12035;49.978;8.298;2023-03-21T09:40:15;16.10;56.00
23713;DHT22;12035;49.978;8.298;2023-03-21T09:45:20;16.20;56.10
23713;DHT22;12035;49.978;8.298;2023-03-21T09:50:22;16.20;56.20
23713;DHT22;12035;49.978;8.298;2023-03-21T09:55:23;16.20;56.10
23713;DHT22;12035;49.978;8.298;2023-03-21T10:00:32;16.30;55.90
23713;DHT22;12035;49.978;8.298;2023-03-21T10:05:32;16.30;55.80
23713;DHT22;12035;49.978;8.298;2023-03-21T10:10:36;16.40;56.20
23713;DHT22;12035;49.978;8.298;2023-03-21T10:15:37;16.40;56.10
23713;DHT22;12035;49.978;8.298;2023-03-21T10:20:36;16.40;56.30
23713;DHT22;12035;49.978;8.298;2023-03-21T10:25:39;16.30;56.20
23713;DHT22;12035;49.978;8.298;2023-03-21T10:30:42;16.30;56.50
23713;DHT22;12035;49.978;8.298;2023-03-21T10:35:44;16.30;56.90
23713;DHT22;12035;49.978;8.298;2023-03-21T10:40:42;16.30;56.70
23713;DHT22;12035;49.978;8.298;2023-03-21T10:45:42;16.30;57.00
23713;DHT22;12035;49.978;8.298;2023-03-21T10:50:41;16.30;57.40
23713;DHT22;12035;49.978;8.298;2023-03-21T10:55:41;16.30;57.60
23713;DHT22;12035;49.978;8.298;2023-03-21T11:00:41;16.30;57.90
23713;DHT22;12035;49.978;8.298;2023-03-21T11:05:40;16.30;58.10
23713;DHT22;12035;49.978;8.298;2023-03-21T11:10:49;16.30;58.40
23713;DHT22;12035;49.978;8.298;2023-03-21T11:15:52;16.30;58.50
23713;DHT22;12035;49.978;8.298;2023-03-21T11:20:54;16.30;58.30
23713;DHT22;12035;49.978;8.298;2023-03-21T11:25:52;16.30;58.40
23713;DHT22;12035;49.978;8.298;2023-03-21T11:30:55;16.30;58.70
23713;DHT22;12035;49.978;8.298;2023-03-21T11:35:58;16.30;58.70
23713;DHT22;12035;49.978;8.298;2023-03-21T11:40:58;16.30;58.70
23713;DHT22;12035;49.978;8.298;2023-03-21T11:46:00;16.30;58.70
23713;DHT22;12035;49.978;8.298;2023-03-21T11:51:04;16.30;58.20
23713;DHT22;12035;49.978;8.298;2023-03-21T11:56:19;16.30;58.10
23713;DHT22;12035;49.978;8.298;2023-03-21T12:01:25;16.40;57.90
23713;DHT22;12035;49.978;8.298;2023-03-21T12:06:33;16.40;57.80
23713;DHT22;12035;49.978;8.298;2023-03-21T12:11:39;16.50;57.90
23713;DHT22;12035;49.978;8.298;2023-03-21T12:16:52;16.40;58.00
23713;DHT22;12035;49.978;8.298;2023-03-21T12:22:02;16.40;58.10
23713;DHT22;12035;49.978;8.298;2023-03-21T12:27:10;16.40;58.50
23713;DHT22;12035;49.978;8.298;2023-03-21T12:32:24;16.40;58.80
23713;DHT22;12035;49.978;8.298;2023-03-21T12:37:32;16.40;59.20
23713;DHT22;12035;49.978;8.298;2023-03-21T12:42:57;16.40;59.80
23713;DHT22;12035;49.978;8.298;2023-03-21T12:48:12;16.40;59.50
23713;DHT22;12035;49.978;8.298;2023-03-21T12:53:26;16.40;59.40
23713;DHT22;12035;49.978;8.298;2023-03-21T12:58:40;16.40;59.70
23713;DHT22;12035;49.978;8.298;2023-03-21T13:03:44;16.40;59.60
23713;DHT22;12035;49.978;8.298;2023-03-21T13:08:48;16.40;60.00
23713;DHT22;12035;49.978;8.298;2023-03-21T13:13:52;16.40;60.10
23713;DHT22;12035;49.978;8.298;2023-03-21T13:18:59;16.30;60.00
23713;DHT22;12035;49.978;8.298;2023-03-21T13:24:03;16.30;60.40
23713;DHT22;12035;49.978;8.298;2023-03-21T13:29:13;16.30;60.70
23713;DHT22;12035;49.978;8.298;2023-03-21T13:34:17;16.20;61.40
23713;DHT22;12035;49.978;8.298;2023-03-21T13:39:18;16.20;62.20
23713;DHT22;12035;49.978;8.298;2023-03-21T13:44:24;16.20;62.10
23713;DHT22;12035;49.978;8.298;2023-03-21T13:49:32;16.10;62.60
23713;DHT22;12035;49.978;8.298;2023-03-21T13:54:44;16.10;62.10
23713;DHT22;12035;49.978;8.298;2023-03-21T13:59:45;16.10;62.80
23713;DHT22;12035;49.978;8.298;2023-03-21T14:04:44;16.00;62.60
23713;DHT22;12035;49.978;8.298;2023-03-21T14:09:45;15.90;63.00
23713;DHT22;12035;49.978;8.298;2023-03-21T14:14:45;15.90;63.40
23713;DHT22;12035;49.978;8.298;2023-03-21T14:19:51;15.90;63.80
23713;DHT22;12035;49.978;8.298;2023-03-21T14:24:54;15.90;63.90
23713;DHT22;12035;49.978;8.298;2023-03-21T14:29:52;15.90;64.10
23713;DHT22;12035;49.978;8.298;2023-03-21T14:34:50;15.90;63.80
23713;DHT22;12035;49.978;8.298;2023-03-21T14:39:56;15.80;64.70
23713;DHT22;12035;49.978;8.298;2023-03-21T14:44:56;15.70;65.20
23713;DHT22;12035;49.978;8.298;2023-03-21T14:49:57;15.60;65.10
23713;DHT22;12035;49.978;8.298;2023-03-21T14:54:55;15.50;65.60
23713;DHT22;12035;49.978;8.298;2023-03-21T14:59:55;15.50;65.90
23713;DHT22;12035;49.978;8.298;2023-03-21T15:04:58;15.60;66.20
23713;DHT22;12035;49.978;8.298;2023-03-21T15:10:06;15.60;66.40
23713;DHT22;12035;49.978;8.298;2023-03-21T15:15:12;15.60;66.40
23713;DHT22;12035;49.978;8.298;2023-03-21T15:20:13;15.60;66.20
23713;DHT22;12035;49.978;8.298;2023-03-21T15:25:15;15.60;66.10
23713;DHT22;12035;49.978;8.298;2023-03-21T15:30:18;15.60;66.40
23713;DHT22;12035;49.978;8.298;2023-03-21T15:35:20;15.50;66.50
23713;DHT22;12035;49.978;8.298;2023-03-21T15:40:23;15.40;66.60
23713;DHT22;12035;49.978;8.298;2023-03-21T15:45:23;15.30;66.50
23713;DHT22;12035;49.978;8.298;2023-03-21T15:50:28;15.30;66.50
23713;DHT22;12035;49.978;8.298;2023-03-21T15:55:37;15.40;66.80
23713;DHT22;12035;49.978;8.298;2023-03-21T16:00:46;15.40;66.50
23713;DHT22;12035;49.978;8.298;2023-03-21T16:11:15;15.50;66.10
23713;DHT22;12035;49.978;8.298;2023-03-21T16:16:16;15.50;66.20
23713;DHT22;12035;49.978;8.298;2023-03-21T16:21:16;15.50;66.20
23713;DHT22;12035;49.978;8.298;2023-03-21T16:26:17;15.50;66.40
23713;DHT22;12035;49.978;8.298;2023-03-21T16:31:18;15.50;66.60
23713;DHT22;12035;49.978;8.298;2023-03-21T16:36:19;15.50;66.50
23713;DHT22;12035;49.978;8.298;2023-03-21T16:41:19;15.50;66.50
23713;DHT22;12035;49.978;8.298;2023-03-21T16:46:19;15.40;66.50
23713;DHT22;12035;49.978;8.298;2023-03-21T16:51:19;15.40;66.50
23713;DHT22;12035;49.978;8.298;2023-03-21T16:56:21;15.40;66.60
23713;DHT22;12035;49.978;8.298;2023-03-21T17:01:20;15.40;66.70
23713;DHT22;12035;49.978;8.298;2023-03-21T17:06:22;15.30;66.80
23713;DHT22;12035;49.978;8.298;2023-03-21T17:11:23;15.30;67.00
23713;DHT22;12035;49.978;8.298;2023-03-21T17:16:23;15.20;67.20
23713;DHT22;12035;49.978;8.298;2023-03-21T17:21:23;15.20;67.40
23713;DHT22;12035;49.978;8.298;2023-03-21T17:26:24;15.10;67.60
23713;DHT22;12035;49.978;8.298;2023-03-21T17:31:23;15.10;67.70
23713;DHT22;12035;49.978;8.298;2023-03-21T17:36:25;15.10;67.80
23713;DHT22;12035;49.978;8.298;2023-03-21T17:41:26;15.10;67.90
23713;DHT22;12035;49.978;8.298;2023-03-21T17:46:25;15.10;68.00
23713;DHT22;12035;49.978;8.298;2023-03-21T17:51:23;15.10;68.00
23713;DHT22;12035;49.978;8.298;2023-03-21T17:56:27;15.10;68.00
23713;DHT22;12035;49.978;8.298;2023-03-21T18:01:26;15.10;68.20
23713;DHT22;12035;49.978;8.298;2023-03-21T18:06:25;15.00;68.00
23713;DHT22;12035;49.978;8.298;2023-03-21T18:11:23;15.00;68.00
23713;DHT22;12035;49.978;8.298;2023-03-21T18:16:23;15.00;68.20
23713;DHT22;12035;49.978;8.298;2023-03-21T18:21:20;15.00;68.30
23713;DHT22;12035;49.978;8.298;2023-03-21T18:26:18;15.00;68.20
23713;DHT22;12035;49.978;8.298;2023-03-21T18:31:18;15.00;68.30
23713;DHT22;12035;49.978;8.298;2023-03-21T18:36:19;14.90;68.40
23713;DHT22;12035;49.978;8.298;2023-03-21T18:41:17;14.90;68.80
23713;DHT22;12035;49.978;8.298;2023-03-21T18:46:15;14.90;68.60
23713;DHT22;12035;49.978;8.298;2023-03-21T18:51:12;14.80;68.60
23713;DHT22;12035;49.978;8.298;2023-03-21T18:56:11;14.80;68.60
23713;DHT22;12035;49.978;8.298;2023-03-21T19:01:09;14.80;68.70
23713;DHT22;12035;49.978;8.298;2023-03-21T19:06:06;14.80;68.70
23713;DHT22;12035;49.978;8.298;2023-03-21T19:11:04;14.80;68.70
23713;DHT22;12035;49.978;8.298;2023-03-21T19:16:02;14.80;68.70
23713;DHT22;12035;49.978;8.298;2023-03-21T19:21:00;14.90;68.90
23713;DHT22;12035;49.978;8.298;2023-03-21T19:25:57;14.90;68.70
23713;DHT22;12035;49.978;8.298;2023-03-21T19:30:54;14.90;68.70
23713;DHT22;12035;49.978;8.298;2023-03-21T19:35:52;14.90;68.60
23713;DHT22;12035;49.978;8.298;2023-03-21T19:40:50;14.90;68.70
23713;DHT22;12035;49.978;8.298;2023-03-21T19:45:48;14.80;68.40
23713;DHT22;12035;49.978;8.298;2023-03-21T19:50:47;14.80;68.40
23713;DHT22;12035;49.978;8.298;2023-03-21T19:55:50;14.70;68.40
23713;DHT22;12035;49.978;8.298;2023-03-21T20:00:47;14.70;69.00
23713;DHT22;12035;49.978;8.298;2023-03-21T20:05:44;14.60;68.70
23713;DHT22;12035;49.978;8.298;2023-03-21T20:10:44;14.60;68.80
23713;DHT22;12035;49.978;8.298;2023-03-21T20:15:43;14.60;69.20
23713;DHT22;12035;49.978;8.298;2023-03-21T20:20:40;14.60;69.10
23713;DHT22;12035;49.978;8.298;2023-03-21T20:25:41;14.60;69.10
23713;DHT22;12035;49.978;8.298;2023-03-21T20:30:44;14.60;69.60
23713;DHT22;12035;49.978;8.298;2023-03-21T20:35:42;14.60;69.70
23713;DHT22;12035;49.978;8.298;2023-03-21T20:40:40;14.60;69.40
23713;DHT22;12035;49.978;8.298;2023-03-21T20:45:39;14.60;69.40
23713;DHT22;12035;49.978;8.298;2023-03-21T20:50:38;14.50;70.00
23713;DHT22;12035;49.978;8.298;2023-03-21T20:55:35;14.50;68.90
23713;DHT22;12035;49.978;8.298;2023-03-21T21:00:32;14.40;68.80
23713;DHT22;12035;49.978;8.298;2023-03-21T21:05:31;14.40;68.90
23713;DHT22;12035;49.978;8.298;2023-03-21T21:10:30;14.30;69.00
23713;DHT22;12035;49.978;8.298;2023-03-21T21:15:28;14.30;69.10
23713;DHT22;12035;49.978;8.298;2023-03-21T21:20:27;14.20;69.10
23713;DHT22;12035;49.978;8.298;2023-03-21T21:25:31;14.10;69.10
23713;DHT22;12035;49.978;8.298;2023-03-21T21:30:29;14.00;69.30
23713;DHT22;12035;49.978;8.298;2023-03-21T21:35:27;14.00;69.50
23713;DHT22;12035;49.978;8.298;2023-03-21T21:40:24;13.90;69.80
23713;DHT22;12035;49.978;8.298;2023-03-21T21:45:22;13.90;69.90
23713;DHT22;12035;49.978;8.298;2023-03-21T21:50:19;13.80;70.00
23713;DHT22;12035;49.978;8.298;2023-03-21T21:55:16;13.80;69.80
23713;DHT22;12035;49.978;8.298;2023-03-21T22:00:14;13.70;69.80
23713;DHT22;12035;49.978;8.298;2023-03-21T22:05:15;13.60;70.00
23713;DHT22;12035;49.978;8.298;2023-03-21T22:10:13;13.60;70.30
23713;DHT22;12035;49.978;8.298;2023-03-21T22:15:11;13.50;70.50
23713;DHT22;12035;49.978;8.298;2023-03-21T22:20:16;13.50;70.70
23713;DHT22;12035;49.978;8.298;2023-03-21T22:25:15;13.50;71.20
23713;DHT22;12035;49.978;8.298;2023-03-21T22:30:14;13.50;70.80
23713;DHT22;12035;49.978;8.298;2023-03-21T22:35:11;13.60;71.20
23713;DHT22;12035;49.978;8.298;2023-03-21T22:40:12;13.60;70.90
23713;DHT22;12035;49.978;8.298;2023-03-21T22:45:11;13.60;70.90
23713;DHT22;12035;49.978;8.298;2023-03-21T22:50:09;13.60;70.80
23713;DHT22;12035;49.978;8.298;2023-03-21T22:55:07;13.50;70.70
23713;DHT22;12035;49.978;8.298;2023-03-21T23:00:09;13.50;70.70
23713;DHT22;12035;49.978;8.298;2023-03-21T23:05:08;13.50;70.70
23713;DHT22;12035;49.978;8.298;2023-03-21T23:10:07;13.50;70.60
23713;DHT22;12035;49.978;8.298;2023-03-21T23:15:09;13.50;70.70
23713;DHT22;12035;49.978;8.298;2023-03-21T23:20:07;13.50;70.70
23713;DHT22;12035;49.978;8.298;2023-03-21T23:25:05;13.40;70.70
23713;DHT22;12035;49.978;8.298;2023-03-21T23:30:03;13.40;70.80
23713;DHT22;12035;49.978;8.298;2023-03-21T23:35:03;13.40;70.70
23713;DHT22;12035;49.978;8.298;2023-03-21T23:40:01;13.40;70.80
23713;DHT22;12035;49.978;8.298;2023-03-21T23:45:00;13.40;70.90
23713;DHT22;12035;49.978;8.298;2023-03-21T23:49:57;13.30;71.00
23713;DHT22;12035;49.978;8.298;2023-03-21T23:54:56;13.40;71.00
23713;DHT22;12035;49.978;8.298;2023-03-21T23:59:53;13.40;71.30
